<?xml version="1.0" encoding="UTF-8" standalone="no" ?>
<gpx xmlns="http://www.topografix.com/GPX/1/1" xmlns:xsi="http://www.w3.org/2001/XMLSchema-instance" xsi:schemaLocation="http://www.topografix.com/GPX/1/1 http://www.topografix.com/GPX/1/1/gpx.xsd" version="1.1" creator="VisuGPX - https://www.visugpx.com">
  <metadata>
    <name>2020-02-06  Randonnée Bertrichamps</name>
    <desc><![CDATA[Bertrichamps, départ de la Solitude, circuit du Chêne de la Vierge
]]></desc>
  </metadata>
  <trk>
    <name><![CDATA[2020-02-06 16:51:31]]></name>
    <trkseg>
      <trkpt lat="48.42558" lon="6.80889">
        <ele>324.37</ele>
        <time>2020-02-06T12:15:22Z</time>
      </trkpt>
      <trkpt lat="48.42545" lon="6.8091">
        <ele>320.43</ele>
        <time>2020-02-06T12:22:09Z</time>
      </trkpt>
      <trkpt lat="48.42542" lon="6.8091">
        <ele>319.66</ele>
        <time>2020-02-06T12:22:55Z</time>
      </trkpt>
      <trkpt lat="48.42545" lon="6.80914">
        <ele>318.9</ele>
        <time>2020-02-06T12:24:32Z</time>
      </trkpt>
      <trkpt lat="48.42545" lon="6.80911">
        <ele>319.26</ele>
        <time>2020-02-06T12:24:54Z</time>
      </trkpt>
      <trkpt lat="48.42549" lon="6.80913">
        <ele>318.06</ele>
        <time>2020-02-06T12:25:18Z</time>
      </trkpt>
      <trkpt lat="48.42568" lon="6.80928">
        <ele>317.94</ele>
        <time>2020-02-06T12:25:34Z</time>
      </trkpt>
      <trkpt lat="48.42585" lon="6.80949">
        <ele>316.09</ele>
        <time>2020-02-06T12:25:53Z</time>
      </trkpt>
      <trkpt lat="48.42605" lon="6.80962">
        <ele>315.35</ele>
        <time>2020-02-06T12:26:10Z</time>
      </trkpt>
      <trkpt lat="48.42626" lon="6.80959">
        <ele>314.54</ele>
        <time>2020-02-06T12:26:27Z</time>
      </trkpt>
      <trkpt lat="48.42646" lon="6.80949">
        <ele>315.23</ele>
        <time>2020-02-06T12:26:47Z</time>
      </trkpt>
      <trkpt lat="48.42665" lon="6.80937">
        <ele>317.11</ele>
        <time>2020-02-06T12:27:09Z</time>
      </trkpt>
      <trkpt lat="48.42677" lon="6.80921">
        <ele>318.68</ele>
        <time>2020-02-06T12:27:34Z</time>
      </trkpt>
      <trkpt lat="48.42689" lon="6.80939">
        <ele>318.55</ele>
        <time>2020-02-06T12:28:11Z</time>
      </trkpt>
      <trkpt lat="48.4271" lon="6.80951">
        <ele>318.89</ele>
        <time>2020-02-06T12:28:37Z</time>
      </trkpt>
      <trkpt lat="48.42733" lon="6.80932">
        <ele>318.48</ele>
        <time>2020-02-06T12:29:05Z</time>
      </trkpt>
      <trkpt lat="48.42761" lon="6.8092">
        <ele>320.17</ele>
        <time>2020-02-06T12:29:33Z</time>
      </trkpt>
      <trkpt lat="48.42788" lon="6.80922">
        <ele>320.47</ele>
        <time>2020-02-06T12:29:55Z</time>
      </trkpt>
      <trkpt lat="48.42802" lon="6.80922">
        <ele>322.19</ele>
        <time>2020-02-06T12:30:22Z</time>
      </trkpt>
      <trkpt lat="48.42827" lon="6.80925">
        <ele>323.51</ele>
        <time>2020-02-06T12:30:48Z</time>
      </trkpt>
      <trkpt lat="48.42858" lon="6.80917">
        <ele>327.01</ele>
        <time>2020-02-06T12:31:15Z</time>
      </trkpt>
      <trkpt lat="48.42878" lon="6.80888">
        <ele>328.56</ele>
        <time>2020-02-06T12:31:33Z</time>
      </trkpt>
      <trkpt lat="48.42888" lon="6.80855">
        <ele>329.36</ele>
        <time>2020-02-06T12:31:51Z</time>
      </trkpt>
      <trkpt lat="48.42901" lon="6.80829">
        <ele>330.84</ele>
        <time>2020-02-06T12:32:09Z</time>
      </trkpt>
      <trkpt lat="48.42912" lon="6.80808">
        <ele>332.07</ele>
        <time>2020-02-06T12:32:25Z</time>
      </trkpt>
      <trkpt lat="48.42924" lon="6.8079">
        <ele>333.79</ele>
        <time>2020-02-06T12:32:43Z</time>
      </trkpt>
      <trkpt lat="48.42939" lon="6.80774">
        <ele>334.83</ele>
        <time>2020-02-06T12:33:09Z</time>
      </trkpt>
      <trkpt lat="48.42957" lon="6.80778">
        <ele>336.79</ele>
        <time>2020-02-06T12:33:30Z</time>
      </trkpt>
      <trkpt lat="48.42973" lon="6.80778">
        <ele>338.32</ele>
        <time>2020-02-06T12:33:51Z</time>
      </trkpt>
      <trkpt lat="48.42996" lon="6.80784">
        <ele>342.41</ele>
        <time>2020-02-06T12:34:17Z</time>
      </trkpt>
      <trkpt lat="48.43019" lon="6.80794">
        <ele>345.02</ele>
        <time>2020-02-06T12:34:42Z</time>
      </trkpt>
      <trkpt lat="48.43037" lon="6.80802">
        <ele>347.75</ele>
        <time>2020-02-06T12:35:05Z</time>
      </trkpt>
      <trkpt lat="48.4306" lon="6.8081">
        <ele>350.96</ele>
        <time>2020-02-06T12:35:39Z</time>
      </trkpt>
      <trkpt lat="48.43085" lon="6.80808">
        <ele>353.34</ele>
        <time>2020-02-06T12:36:04Z</time>
      </trkpt>
      <trkpt lat="48.43107" lon="6.80799">
        <ele>355.09</ele>
        <time>2020-02-06T12:36:35Z</time>
      </trkpt>
      <trkpt lat="48.4313" lon="6.80805">
        <ele>356.9</ele>
        <time>2020-02-06T12:36:55Z</time>
      </trkpt>
      <trkpt lat="48.4315" lon="6.80817">
        <ele>357.73</ele>
        <time>2020-02-06T12:37:14Z</time>
      </trkpt>
      <trkpt lat="48.4317" lon="6.80837">
        <ele>358.29</ele>
        <time>2020-02-06T12:37:32Z</time>
      </trkpt>
      <trkpt lat="48.43178" lon="6.80844">
        <ele>358.85</ele>
        <time>2020-02-06T12:38:36Z</time>
      </trkpt>
      <trkpt lat="48.43188" lon="6.80849">
        <ele>356.91</ele>
        <time>2020-02-06T12:40:59Z</time>
      </trkpt>
      <trkpt lat="48.43202" lon="6.80854">
        <ele>359.93</ele>
        <time>2020-02-06T12:41:16Z</time>
      </trkpt>
      <trkpt lat="48.43218" lon="6.80863">
        <ele>361.55</ele>
        <time>2020-02-06T12:41:37Z</time>
      </trkpt>
      <trkpt lat="48.43237" lon="6.80871">
        <ele>364.76</ele>
        <time>2020-02-06T12:42:00Z</time>
      </trkpt>
      <trkpt lat="48.43254" lon="6.80883">
        <ele>369.1</ele>
        <time>2020-02-06T12:42:24Z</time>
      </trkpt>
      <trkpt lat="48.43273" lon="6.80894">
        <ele>371.78</ele>
        <time>2020-02-06T12:42:46Z</time>
      </trkpt>
      <trkpt lat="48.43294" lon="6.80906">
        <ele>373.78</ele>
        <time>2020-02-06T12:43:09Z</time>
      </trkpt>
      <trkpt lat="48.43317" lon="6.80909">
        <ele>373.39</ele>
        <time>2020-02-06T12:43:28Z</time>
      </trkpt>
      <trkpt lat="48.43337" lon="6.80918">
        <ele>373.61</ele>
        <time>2020-02-06T12:43:46Z</time>
      </trkpt>
      <trkpt lat="48.4336" lon="6.80919">
        <ele>376.37</ele>
        <time>2020-02-06T12:44:07Z</time>
      </trkpt>
      <trkpt lat="48.43381" lon="6.80924">
        <ele>378.46</ele>
        <time>2020-02-06T12:44:33Z</time>
      </trkpt>
      <trkpt lat="48.43417" lon="6.80929">
        <ele>383.44</ele>
        <time>2020-02-06T12:45:04Z</time>
      </trkpt>
      <trkpt lat="48.4344" lon="6.80928">
        <ele>387.89</ele>
        <time>2020-02-06T12:45:30Z</time>
      </trkpt>
      <trkpt lat="48.43463" lon="6.80938">
        <ele>391.45</ele>
        <time>2020-02-06T12:45:54Z</time>
      </trkpt>
      <trkpt lat="48.43496" lon="6.80935">
        <ele>395.77</ele>
        <time>2020-02-06T12:46:21Z</time>
      </trkpt>
      <trkpt lat="48.4352" lon="6.80913">
        <ele>398.98</ele>
        <time>2020-02-06T12:46:45Z</time>
      </trkpt>
      <trkpt lat="48.43539" lon="6.809">
        <ele>401.38</ele>
        <time>2020-02-06T12:47:12Z</time>
      </trkpt>
      <trkpt lat="48.43556" lon="6.8089">
        <ele>403.34</ele>
        <time>2020-02-06T12:47:39Z</time>
      </trkpt>
      <trkpt lat="48.43574" lon="6.80896">
        <ele>406.61</ele>
        <time>2020-02-06T12:48:04Z</time>
      </trkpt>
      <trkpt lat="48.43593" lon="6.80908">
        <ele>409.89</ele>
        <time>2020-02-06T12:48:27Z</time>
      </trkpt>
      <trkpt lat="48.43609" lon="6.8093">
        <ele>413.47</ele>
        <time>2020-02-06T12:48:53Z</time>
      </trkpt>
      <trkpt lat="48.43621" lon="6.80956">
        <ele>414.78</ele>
        <time>2020-02-06T12:49:15Z</time>
      </trkpt>
      <trkpt lat="48.43619" lon="6.80986">
        <ele>414.63</ele>
        <time>2020-02-06T12:49:41Z</time>
      </trkpt>
      <trkpt lat="48.43602" lon="6.81001">
        <ele>414.2</ele>
        <time>2020-02-06T12:50:03Z</time>
      </trkpt>
      <trkpt lat="48.43584" lon="6.81012">
        <ele>413.92</ele>
        <time>2020-02-06T12:50:23Z</time>
      </trkpt>
      <trkpt lat="48.43568" lon="6.81028">
        <ele>413.75</ele>
        <time>2020-02-06T12:50:42Z</time>
      </trkpt>
      <trkpt lat="48.43553" lon="6.81046">
        <ele>415.67</ele>
        <time>2020-02-06T12:51:01Z</time>
      </trkpt>
      <trkpt lat="48.43533" lon="6.81057">
        <ele>418.15</ele>
        <time>2020-02-06T12:51:19Z</time>
      </trkpt>
      <trkpt lat="48.43521" lon="6.81082">
        <ele>419.33</ele>
        <time>2020-02-06T12:51:38Z</time>
      </trkpt>
      <trkpt lat="48.43526" lon="6.81117">
        <ele>419.2</ele>
        <time>2020-02-06T12:51:56Z</time>
      </trkpt>
      <trkpt lat="48.43533" lon="6.81145">
        <ele>420.43</ele>
        <time>2020-02-06T12:52:14Z</time>
      </trkpt>
      <trkpt lat="48.43538" lon="6.81172">
        <ele>420.35</ele>
        <time>2020-02-06T12:52:31Z</time>
      </trkpt>
      <trkpt lat="48.43542" lon="6.81199">
        <ele>420.54</ele>
        <time>2020-02-06T12:52:48Z</time>
      </trkpt>
      <trkpt lat="48.43555" lon="6.81225">
        <ele>421.45</ele>
        <time>2020-02-06T12:53:05Z</time>
      </trkpt>
      <trkpt lat="48.4357" lon="6.81245">
        <ele>421.98</ele>
        <time>2020-02-06T12:53:22Z</time>
      </trkpt>
      <trkpt lat="48.43585" lon="6.81262">
        <ele>421.93</ele>
        <time>2020-02-06T12:53:39Z</time>
      </trkpt>
      <trkpt lat="48.43603" lon="6.81278">
        <ele>422.65</ele>
        <time>2020-02-06T12:53:56Z</time>
      </trkpt>
      <trkpt lat="48.43618" lon="6.81296">
        <ele>422.57</ele>
        <time>2020-02-06T12:54:14Z</time>
      </trkpt>
      <trkpt lat="48.43636" lon="6.81311">
        <ele>422.34</ele>
        <time>2020-02-06T12:54:32Z</time>
      </trkpt>
      <trkpt lat="48.43651" lon="6.81329">
        <ele>421.96</ele>
        <time>2020-02-06T12:54:49Z</time>
      </trkpt>
      <trkpt lat="48.43666" lon="6.81344">
        <ele>420.68</ele>
        <time>2020-02-06T12:55:06Z</time>
      </trkpt>
      <trkpt lat="48.43684" lon="6.81356">
        <ele>420.08</ele>
        <time>2020-02-06T12:55:24Z</time>
      </trkpt>
      <trkpt lat="48.43703" lon="6.81369">
        <ele>419.04</ele>
        <time>2020-02-06T12:55:41Z</time>
      </trkpt>
      <trkpt lat="48.43719" lon="6.81386">
        <ele>419.4</ele>
        <time>2020-02-06T12:55:58Z</time>
      </trkpt>
      <trkpt lat="48.4373" lon="6.81412">
        <ele>419.37</ele>
        <time>2020-02-06T12:56:17Z</time>
      </trkpt>
      <trkpt lat="48.43739" lon="6.81436">
        <ele>420.07</ele>
        <time>2020-02-06T12:56:34Z</time>
      </trkpt>
      <trkpt lat="48.43749" lon="6.8146">
        <ele>419.65</ele>
        <time>2020-02-06T12:56:50Z</time>
      </trkpt>
      <trkpt lat="48.4376" lon="6.81483">
        <ele>418.99</ele>
        <time>2020-02-06T12:57:08Z</time>
      </trkpt>
      <trkpt lat="48.43771" lon="6.81511">
        <ele>419.33</ele>
        <time>2020-02-06T12:57:27Z</time>
      </trkpt>
      <trkpt lat="48.43783" lon="6.81539">
        <ele>421.09</ele>
        <time>2020-02-06T12:57:49Z</time>
      </trkpt>
      <trkpt lat="48.43797" lon="6.81567">
        <ele>422.88</ele>
        <time>2020-02-06T12:58:08Z</time>
      </trkpt>
      <trkpt lat="48.4381" lon="6.81593">
        <ele>424.63</ele>
        <time>2020-02-06T12:58:25Z</time>
      </trkpt>
      <trkpt lat="48.43823" lon="6.81617">
        <ele>424.84</ele>
        <time>2020-02-06T12:58:43Z</time>
      </trkpt>
      <trkpt lat="48.43832" lon="6.81643">
        <ele>425.39</ele>
        <time>2020-02-06T12:58:59Z</time>
      </trkpt>
      <trkpt lat="48.43844" lon="6.81665">
        <ele>426.04</ele>
        <time>2020-02-06T12:59:14Z</time>
      </trkpt>
      <trkpt lat="48.43852" lon="6.8169">
        <ele>426.15</ele>
        <time>2020-02-06T12:59:29Z</time>
      </trkpt>
      <trkpt lat="48.4386" lon="6.81714">
        <ele>425.91</ele>
        <time>2020-02-06T12:59:44Z</time>
      </trkpt>
      <trkpt lat="48.4387" lon="6.8174">
        <ele>426.26</ele>
        <time>2020-02-06T13:00:00Z</time>
      </trkpt>
      <trkpt lat="48.43881" lon="6.81763">
        <ele>426.64</ele>
        <time>2020-02-06T13:00:15Z</time>
      </trkpt>
      <trkpt lat="48.43893" lon="6.81785">
        <ele>426.62</ele>
        <time>2020-02-06T13:00:31Z</time>
      </trkpt>
      <trkpt lat="48.43906" lon="6.81807">
        <ele>426.82</ele>
        <time>2020-02-06T13:00:47Z</time>
      </trkpt>
      <trkpt lat="48.43913" lon="6.81834">
        <ele>426.54</ele>
        <time>2020-02-06T13:01:04Z</time>
      </trkpt>
      <trkpt lat="48.43914" lon="6.81862">
        <ele>425.95</ele>
        <time>2020-02-06T13:01:22Z</time>
      </trkpt>
      <trkpt lat="48.43903" lon="6.81879">
        <ele>425.72</ele>
        <time>2020-02-06T13:01:44Z</time>
      </trkpt>
      <trkpt lat="48.43891" lon="6.8188">
        <ele>423.56</ele>
        <time>2020-02-06T13:02:50Z</time>
      </trkpt>
      <trkpt lat="48.43885" lon="6.81874">
        <ele>422.28</ele>
        <time>2020-02-06T13:05:08Z</time>
      </trkpt>
      <trkpt lat="48.43888" lon="6.81871">
        <ele>420.66</ele>
        <time>2020-02-06T13:08:07Z</time>
      </trkpt>
      <trkpt lat="48.439" lon="6.81889">
        <ele>419.67</ele>
        <time>2020-02-06T13:11:05Z</time>
      </trkpt>
      <trkpt lat="48.43915" lon="6.81897">
        <ele>420.16</ele>
        <time>2020-02-06T13:11:25Z</time>
      </trkpt>
      <trkpt lat="48.43914" lon="6.8192">
        <ele>418.88</ele>
        <time>2020-02-06T13:12:04Z</time>
      </trkpt>
      <trkpt lat="48.43917" lon="6.81946">
        <ele>418.31</ele>
        <time>2020-02-06T13:12:47Z</time>
      </trkpt>
      <trkpt lat="48.43919" lon="6.81977">
        <ele>417.6</ele>
        <time>2020-02-06T13:13:13Z</time>
      </trkpt>
      <trkpt lat="48.43924" lon="6.82005">
        <ele>418.07</ele>
        <time>2020-02-06T13:13:35Z</time>
      </trkpt>
      <trkpt lat="48.43932" lon="6.82031">
        <ele>418.08</ele>
        <time>2020-02-06T13:13:56Z</time>
      </trkpt>
      <trkpt lat="48.43944" lon="6.82051">
        <ele>418.36</ele>
        <time>2020-02-06T13:14:18Z</time>
      </trkpt>
      <trkpt lat="48.43955" lon="6.82073">
        <ele>419.33</ele>
        <time>2020-02-06T13:14:38Z</time>
      </trkpt>
      <trkpt lat="48.43967" lon="6.82095">
        <ele>420.06</ele>
        <time>2020-02-06T13:14:58Z</time>
      </trkpt>
      <trkpt lat="48.43979" lon="6.82118">
        <ele>421.15</ele>
        <time>2020-02-06T13:15:19Z</time>
      </trkpt>
      <trkpt lat="48.43994" lon="6.82138">
        <ele>419.99</ele>
        <time>2020-02-06T13:15:38Z</time>
      </trkpt>
      <trkpt lat="48.44008" lon="6.82156">
        <ele>418.68</ele>
        <time>2020-02-06T13:15:57Z</time>
      </trkpt>
      <trkpt lat="48.44014" lon="6.82185">
        <ele>416.29</ele>
        <time>2020-02-06T13:16:16Z</time>
      </trkpt>
      <trkpt lat="48.44016" lon="6.82213">
        <ele>414.51</ele>
        <time>2020-02-06T13:16:35Z</time>
      </trkpt>
      <trkpt lat="48.44022" lon="6.82242">
        <ele>413.84</ele>
        <time>2020-02-06T13:16:53Z</time>
      </trkpt>
      <trkpt lat="48.44031" lon="6.82266">
        <ele>414.31</ele>
        <time>2020-02-06T13:17:10Z</time>
      </trkpt>
      <trkpt lat="48.44043" lon="6.82294">
        <ele>415.33</ele>
        <time>2020-02-06T13:17:28Z</time>
      </trkpt>
      <trkpt lat="48.4405" lon="6.82321">
        <ele>416.76</ele>
        <time>2020-02-06T13:17:44Z</time>
      </trkpt>
      <trkpt lat="48.44056" lon="6.82351">
        <ele>417.78</ele>
        <time>2020-02-06T13:18:00Z</time>
      </trkpt>
      <trkpt lat="48.44062" lon="6.82377">
        <ele>417.34</ele>
        <time>2020-02-06T13:18:16Z</time>
      </trkpt>
      <trkpt lat="48.44065" lon="6.82405">
        <ele>416.29</ele>
        <time>2020-02-06T13:18:32Z</time>
      </trkpt>
      <trkpt lat="48.44069" lon="6.82433">
        <ele>415.84</ele>
        <time>2020-02-06T13:18:50Z</time>
      </trkpt>
      <trkpt lat="48.44076" lon="6.82463">
        <ele>415.45</ele>
        <time>2020-02-06T13:19:06Z</time>
      </trkpt>
      <trkpt lat="48.44085" lon="6.82486">
        <ele>416.03</ele>
        <time>2020-02-06T13:19:22Z</time>
      </trkpt>
      <trkpt lat="48.44096" lon="6.82504">
        <ele>416.59</ele>
        <time>2020-02-06T13:19:41Z</time>
      </trkpt>
      <trkpt lat="48.44112" lon="6.82523">
        <ele>417.25</ele>
        <time>2020-02-06T13:19:59Z</time>
      </trkpt>
      <trkpt lat="48.44132" lon="6.82541">
        <ele>418.22</ele>
        <time>2020-02-06T13:20:17Z</time>
      </trkpt>
      <trkpt lat="48.44149" lon="6.82561">
        <ele>419.75</ele>
        <time>2020-02-06T13:20:34Z</time>
      </trkpt>
      <trkpt lat="48.44166" lon="6.82582">
        <ele>419.55</ele>
        <time>2020-02-06T13:20:51Z</time>
      </trkpt>
      <trkpt lat="48.4418" lon="6.82604">
        <ele>420.32</ele>
        <time>2020-02-06T13:21:08Z</time>
      </trkpt>
      <trkpt lat="48.44191" lon="6.82625">
        <ele>421.35</ele>
        <time>2020-02-06T13:21:24Z</time>
      </trkpt>
      <trkpt lat="48.44204" lon="6.82646">
        <ele>421.05</ele>
        <time>2020-02-06T13:21:41Z</time>
      </trkpt>
      <trkpt lat="48.44218" lon="6.82667">
        <ele>421.67</ele>
        <time>2020-02-06T13:21:58Z</time>
      </trkpt>
      <trkpt lat="48.44229" lon="6.82689">
        <ele>422.77</ele>
        <time>2020-02-06T13:22:14Z</time>
      </trkpt>
      <trkpt lat="48.44242" lon="6.82712">
        <ele>423.11</ele>
        <time>2020-02-06T13:22:31Z</time>
      </trkpt>
      <trkpt lat="48.44253" lon="6.82734">
        <ele>423.86</ele>
        <time>2020-02-06T13:22:47Z</time>
      </trkpt>
      <trkpt lat="48.44263" lon="6.82758">
        <ele>424.52</ele>
        <time>2020-02-06T13:23:03Z</time>
      </trkpt>
      <trkpt lat="48.44275" lon="6.8278">
        <ele>424.59</ele>
        <time>2020-02-06T13:23:20Z</time>
      </trkpt>
      <trkpt lat="48.44288" lon="6.82803">
        <ele>424.61</ele>
        <time>2020-02-06T13:23:36Z</time>
      </trkpt>
      <trkpt lat="48.44297" lon="6.82827">
        <ele>425.19</ele>
        <time>2020-02-06T13:23:53Z</time>
      </trkpt>
      <trkpt lat="48.44306" lon="6.82853">
        <ele>425.84</ele>
        <time>2020-02-06T13:24:10Z</time>
      </trkpt>
      <trkpt lat="48.44318" lon="6.82877">
        <ele>426.19</ele>
        <time>2020-02-06T13:24:27Z</time>
      </trkpt>
      <trkpt lat="48.4433" lon="6.829">
        <ele>426.08</ele>
        <time>2020-02-06T13:24:43Z</time>
      </trkpt>
      <trkpt lat="48.44343" lon="6.8292">
        <ele>426.22</ele>
        <time>2020-02-06T13:24:59Z</time>
      </trkpt>
      <trkpt lat="48.44356" lon="6.82942">
        <ele>426.62</ele>
        <time>2020-02-06T13:25:16Z</time>
      </trkpt>
      <trkpt lat="48.44366" lon="6.82966">
        <ele>426.66</ele>
        <time>2020-02-06T13:25:32Z</time>
      </trkpt>
      <trkpt lat="48.44378" lon="6.82988">
        <ele>426.27</ele>
        <time>2020-02-06T13:25:48Z</time>
      </trkpt>
      <trkpt lat="48.44391" lon="6.83007">
        <ele>426.26</ele>
        <time>2020-02-06T13:26:04Z</time>
      </trkpt>
      <trkpt lat="48.44405" lon="6.83027">
        <ele>425.81</ele>
        <time>2020-02-06T13:26:20Z</time>
      </trkpt>
      <trkpt lat="48.44419" lon="6.83046">
        <ele>426.38</ele>
        <time>2020-02-06T13:26:36Z</time>
      </trkpt>
      <trkpt lat="48.44431" lon="6.83066">
        <ele>425.28</ele>
        <time>2020-02-06T13:26:52Z</time>
      </trkpt>
      <trkpt lat="48.4444" lon="6.83089">
        <ele>424.89</ele>
        <time>2020-02-06T13:27:09Z</time>
      </trkpt>
      <trkpt lat="48.44453" lon="6.8311">
        <ele>424.63</ele>
        <time>2020-02-06T13:27:25Z</time>
      </trkpt>
      <trkpt lat="48.44467" lon="6.83131">
        <ele>424.9</ele>
        <time>2020-02-06T13:27:42Z</time>
      </trkpt>
      <trkpt lat="48.44483" lon="6.83147">
        <ele>425.02</ele>
        <time>2020-02-06T13:27:58Z</time>
      </trkpt>
      <trkpt lat="48.44499" lon="6.83164">
        <ele>425.47</ele>
        <time>2020-02-06T13:28:14Z</time>
      </trkpt>
      <trkpt lat="48.44514" lon="6.8318">
        <ele>425.49</ele>
        <time>2020-02-06T13:28:30Z</time>
      </trkpt>
      <trkpt lat="48.4453" lon="6.83196">
        <ele>425.31</ele>
        <time>2020-02-06T13:28:47Z</time>
      </trkpt>
      <trkpt lat="48.44545" lon="6.83209">
        <ele>425.49</ele>
        <time>2020-02-06T13:29:08Z</time>
      </trkpt>
      <trkpt lat="48.4456" lon="6.83227">
        <ele>425</ele>
        <time>2020-02-06T13:29:24Z</time>
      </trkpt>
      <trkpt lat="48.44573" lon="6.83247">
        <ele>425.1</ele>
        <time>2020-02-06T13:29:40Z</time>
      </trkpt>
      <trkpt lat="48.44587" lon="6.83265">
        <ele>424.31</ele>
        <time>2020-02-06T13:29:56Z</time>
      </trkpt>
      <trkpt lat="48.44603" lon="6.83282">
        <ele>423.89</ele>
        <time>2020-02-06T13:30:14Z</time>
      </trkpt>
      <trkpt lat="48.44615" lon="6.83303">
        <ele>423.18</ele>
        <time>2020-02-06T13:30:31Z</time>
      </trkpt>
      <trkpt lat="48.44624" lon="6.83329">
        <ele>422.21</ele>
        <time>2020-02-06T13:30:49Z</time>
      </trkpt>
      <trkpt lat="48.44622" lon="6.83356">
        <ele>421.52</ele>
        <time>2020-02-06T13:31:07Z</time>
      </trkpt>
      <trkpt lat="48.44615" lon="6.83382">
        <ele>421.61</ele>
        <time>2020-02-06T13:31:25Z</time>
      </trkpt>
      <trkpt lat="48.44609" lon="6.83412">
        <ele>421.88</ele>
        <time>2020-02-06T13:31:42Z</time>
      </trkpt>
      <trkpt lat="48.44609" lon="6.83444">
        <ele>424.08</ele>
        <time>2020-02-06T13:32:00Z</time>
      </trkpt>
      <trkpt lat="48.4461" lon="6.83477">
        <ele>425.59</ele>
        <time>2020-02-06T13:32:18Z</time>
      </trkpt>
      <trkpt lat="48.44615" lon="6.83509">
        <ele>427.28</ele>
        <time>2020-02-06T13:32:38Z</time>
      </trkpt>
      <trkpt lat="48.44618" lon="6.83541">
        <ele>428.27</ele>
        <time>2020-02-06T13:32:56Z</time>
      </trkpt>
      <trkpt lat="48.44619" lon="6.83572">
        <ele>428.74</ele>
        <time>2020-02-06T13:33:13Z</time>
      </trkpt>
      <trkpt lat="48.44621" lon="6.83603">
        <ele>429.66</ele>
        <time>2020-02-06T13:33:31Z</time>
      </trkpt>
      <trkpt lat="48.44622" lon="6.83632">
        <ele>429.04</ele>
        <time>2020-02-06T13:33:49Z</time>
      </trkpt>
      <trkpt lat="48.44622" lon="6.83663">
        <ele>428.32</ele>
        <time>2020-02-06T13:34:08Z</time>
      </trkpt>
      <trkpt lat="48.44623" lon="6.83692">
        <ele>427.26</ele>
        <time>2020-02-06T13:34:26Z</time>
      </trkpt>
      <trkpt lat="48.44621" lon="6.83721">
        <ele>426.65</ele>
        <time>2020-02-06T13:34:44Z</time>
      </trkpt>
      <trkpt lat="48.44614" lon="6.83748">
        <ele>424.74</ele>
        <time>2020-02-06T13:35:04Z</time>
      </trkpt>
      <trkpt lat="48.44609" lon="6.83777">
        <ele>423.46</ele>
        <time>2020-02-06T13:35:25Z</time>
      </trkpt>
      <trkpt lat="48.44608" lon="6.83812">
        <ele>422.33</ele>
        <time>2020-02-06T13:35:46Z</time>
      </trkpt>
      <trkpt lat="48.44613" lon="6.83846">
        <ele>420.64</ele>
        <time>2020-02-06T13:36:06Z</time>
      </trkpt>
      <trkpt lat="48.44622" lon="6.83875">
        <ele>418.57</ele>
        <time>2020-02-06T13:36:25Z</time>
      </trkpt>
      <trkpt lat="48.44629" lon="6.83902">
        <ele>417.19</ele>
        <time>2020-02-06T13:36:44Z</time>
      </trkpt>
      <trkpt lat="48.44636" lon="6.83926">
        <ele>415.91</ele>
        <time>2020-02-06T13:37:03Z</time>
      </trkpt>
      <trkpt lat="48.44638" lon="6.83952">
        <ele>412.5</ele>
        <time>2020-02-06T13:37:24Z</time>
      </trkpt>
      <trkpt lat="48.44642" lon="6.83979">
        <ele>409.15</ele>
        <time>2020-02-06T13:37:46Z</time>
      </trkpt>
      <trkpt lat="48.44648" lon="6.84008">
        <ele>405.42</ele>
        <time>2020-02-06T13:38:12Z</time>
      </trkpt>
      <trkpt lat="48.44651" lon="6.84037">
        <ele>400.42</ele>
        <time>2020-02-06T13:38:37Z</time>
      </trkpt>
      <trkpt lat="48.44648" lon="6.84066">
        <ele>395.79</ele>
        <time>2020-02-06T13:39:02Z</time>
      </trkpt>
      <trkpt lat="48.44653" lon="6.84099">
        <ele>393.99</ele>
        <time>2020-02-06T13:39:34Z</time>
      </trkpt>
      <trkpt lat="48.4465" lon="6.84124">
        <ele>390.11</ele>
        <time>2020-02-06T13:40:05Z</time>
      </trkpt>
      <trkpt lat="48.44648" lon="6.84157">
        <ele>387.27</ele>
        <time>2020-02-06T13:40:29Z</time>
      </trkpt>
      <trkpt lat="48.44643" lon="6.84186">
        <ele>384.44</ele>
        <time>2020-02-06T13:40:52Z</time>
      </trkpt>
      <trkpt lat="48.44626" lon="6.84212">
        <ele>384</ele>
        <time>2020-02-06T13:41:14Z</time>
      </trkpt>
      <trkpt lat="48.44608" lon="6.84227">
        <ele>382.01</ele>
        <time>2020-02-06T13:41:59Z</time>
      </trkpt>
      <trkpt lat="48.44589" lon="6.84239">
        <ele>377.64</ele>
        <time>2020-02-06T13:42:31Z</time>
      </trkpt>
      <trkpt lat="48.4457" lon="6.8425">
        <ele>377.32</ele>
        <time>2020-02-06T13:43:01Z</time>
      </trkpt>
      <trkpt lat="48.44554" lon="6.84278">
        <ele>377.18</ele>
        <time>2020-02-06T13:43:34Z</time>
      </trkpt>
      <trkpt lat="48.44542" lon="6.84307">
        <ele>377.42</ele>
        <time>2020-02-06T13:43:56Z</time>
      </trkpt>
      <trkpt lat="48.4453" lon="6.84337">
        <ele>378.13</ele>
        <time>2020-02-06T13:44:22Z</time>
      </trkpt>
      <trkpt lat="48.44509" lon="6.84363">
        <ele>377.57</ele>
        <time>2020-02-06T13:44:44Z</time>
      </trkpt>
      <trkpt lat="48.4449" lon="6.84377">
        <ele>378.75</ele>
        <time>2020-02-06T13:45:08Z</time>
      </trkpt>
      <trkpt lat="48.44467" lon="6.84392">
        <ele>379.38</ele>
        <time>2020-02-06T13:45:34Z</time>
      </trkpt>
      <trkpt lat="48.44444" lon="6.84407">
        <ele>379.84</ele>
        <time>2020-02-06T13:46:01Z</time>
      </trkpt>
      <trkpt lat="48.44417" lon="6.84436">
        <ele>380.55</ele>
        <time>2020-02-06T13:46:26Z</time>
      </trkpt>
      <trkpt lat="48.44391" lon="6.84442">
        <ele>380.25</ele>
        <time>2020-02-06T13:46:50Z</time>
      </trkpt>
      <trkpt lat="48.44361" lon="6.84447">
        <ele>380.19</ele>
        <time>2020-02-06T13:47:15Z</time>
      </trkpt>
      <trkpt lat="48.44338" lon="6.84441">
        <ele>380.91</ele>
        <time>2020-02-06T13:47:41Z</time>
      </trkpt>
      <trkpt lat="48.44315" lon="6.84431">
        <ele>381.34</ele>
        <time>2020-02-06T13:48:08Z</time>
      </trkpt>
      <trkpt lat="48.44292" lon="6.84419">
        <ele>381.96</ele>
        <time>2020-02-06T13:48:28Z</time>
      </trkpt>
      <trkpt lat="48.44264" lon="6.84402">
        <ele>382.27</ele>
        <time>2020-02-06T13:48:49Z</time>
      </trkpt>
      <trkpt lat="48.44235" lon="6.84399">
        <ele>383.12</ele>
        <time>2020-02-06T13:49:12Z</time>
      </trkpt>
      <trkpt lat="48.44207" lon="6.84393">
        <ele>383.36</ele>
        <time>2020-02-06T13:49:37Z</time>
      </trkpt>
      <trkpt lat="48.44178" lon="6.84395">
        <ele>384.7</ele>
        <time>2020-02-06T13:50:06Z</time>
      </trkpt>
      <trkpt lat="48.44153" lon="6.84394">
        <ele>385.15</ele>
        <time>2020-02-06T13:50:37Z</time>
      </trkpt>
      <trkpt lat="48.4413" lon="6.84406">
        <ele>384.88</ele>
        <time>2020-02-06T13:50:59Z</time>
      </trkpt>
      <trkpt lat="48.44117" lon="6.84434">
        <ele>385.4</ele>
        <time>2020-02-06T13:51:23Z</time>
      </trkpt>
      <trkpt lat="48.44115" lon="6.84473">
        <ele>386.57</ele>
        <time>2020-02-06T13:51:46Z</time>
      </trkpt>
      <trkpt lat="48.4411" lon="6.84515">
        <ele>386.76</ele>
        <time>2020-02-06T13:52:11Z</time>
      </trkpt>
      <trkpt lat="48.44091" lon="6.84537">
        <ele>386.89</ele>
        <time>2020-02-06T13:52:35Z</time>
      </trkpt>
      <trkpt lat="48.44068" lon="6.84528">
        <ele>386.97</ele>
        <time>2020-02-06T13:53:00Z</time>
      </trkpt>
      <trkpt lat="48.44055" lon="6.84493">
        <ele>387.3</ele>
        <time>2020-02-06T13:53:24Z</time>
      </trkpt>
      <trkpt lat="48.44033" lon="6.84474">
        <ele>387.55</ele>
        <time>2020-02-06T13:53:49Z</time>
      </trkpt>
      <trkpt lat="48.44008" lon="6.84464">
        <ele>387.53</ele>
        <time>2020-02-06T13:54:13Z</time>
      </trkpt>
      <trkpt lat="48.43996" lon="6.84414">
        <ele>387.78</ele>
        <time>2020-02-06T13:54:44Z</time>
      </trkpt>
      <trkpt lat="48.44" lon="6.84377">
        <ele>387.87</ele>
        <time>2020-02-06T13:55:05Z</time>
      </trkpt>
      <trkpt lat="48.44006" lon="6.84342">
        <ele>387.88</ele>
        <time>2020-02-06T13:55:25Z</time>
      </trkpt>
      <trkpt lat="48.43995" lon="6.84309">
        <ele>388.04</ele>
        <time>2020-02-06T13:55:48Z</time>
      </trkpt>
      <trkpt lat="48.43986" lon="6.84285">
        <ele>386.57</ele>
        <time>2020-02-06T13:56:45Z</time>
      </trkpt>
      <trkpt lat="48.43984" lon="6.84286">
        <ele>384.9</ele>
        <time>2020-02-06T13:57:42Z</time>
      </trkpt>
      <trkpt lat="48.43971" lon="6.84293">
        <ele>383.04</ele>
        <time>2020-02-06T13:59:18Z</time>
      </trkpt>
      <trkpt lat="48.43961" lon="6.84292">
        <ele>383.9</ele>
        <time>2020-02-06T14:00:15Z</time>
      </trkpt>
      <trkpt lat="48.4394" lon="6.84278">
        <ele>384.18</ele>
        <time>2020-02-06T14:00:39Z</time>
      </trkpt>
      <trkpt lat="48.43917" lon="6.84252">
        <ele>384.98</ele>
        <time>2020-02-06T14:01:03Z</time>
      </trkpt>
      <trkpt lat="48.43895" lon="6.84221">
        <ele>385.61</ele>
        <time>2020-02-06T14:01:27Z</time>
      </trkpt>
      <trkpt lat="48.4387" lon="6.84195">
        <ele>385.99</ele>
        <time>2020-02-06T14:01:52Z</time>
      </trkpt>
      <trkpt lat="48.43845" lon="6.84177">
        <ele>386.29</ele>
        <time>2020-02-06T14:02:17Z</time>
      </trkpt>
      <trkpt lat="48.43823" lon="6.84163">
        <ele>387.59</ele>
        <time>2020-02-06T14:02:45Z</time>
      </trkpt>
      <trkpt lat="48.43789" lon="6.84145">
        <ele>388.62</ele>
        <time>2020-02-06T14:03:09Z</time>
      </trkpt>
      <trkpt lat="48.43763" lon="6.84146">
        <ele>388.04</ele>
        <time>2020-02-06T14:03:33Z</time>
      </trkpt>
      <trkpt lat="48.43743" lon="6.84134">
        <ele>388.93</ele>
        <time>2020-02-06T14:04:00Z</time>
      </trkpt>
      <trkpt lat="48.43725" lon="6.84148">
        <ele>388.8</ele>
        <time>2020-02-06T14:04:29Z</time>
      </trkpt>
      <trkpt lat="48.43705" lon="6.84163">
        <ele>389.27</ele>
        <time>2020-02-06T14:05:02Z</time>
      </trkpt>
      <trkpt lat="48.43686" lon="6.8417">
        <ele>388.05</ele>
        <time>2020-02-06T14:05:34Z</time>
      </trkpt>
      <trkpt lat="48.43667" lon="6.84147">
        <ele>386.46</ele>
        <time>2020-02-06T14:06:00Z</time>
      </trkpt>
      <trkpt lat="48.43649" lon="6.84138">
        <ele>385.33</ele>
        <time>2020-02-06T14:06:28Z</time>
      </trkpt>
      <trkpt lat="48.43625" lon="6.84125">
        <ele>383.7</ele>
        <time>2020-02-06T14:06:48Z</time>
      </trkpt>
      <trkpt lat="48.43599" lon="6.84113">
        <ele>381.82</ele>
        <time>2020-02-06T14:07:11Z</time>
      </trkpt>
      <trkpt lat="48.43582" lon="6.84093">
        <ele>380.49</ele>
        <time>2020-02-06T14:07:34Z</time>
      </trkpt>
      <trkpt lat="48.43561" lon="6.84076">
        <ele>378.68</ele>
        <time>2020-02-06T14:07:56Z</time>
      </trkpt>
      <trkpt lat="48.43542" lon="6.84054">
        <ele>377.44</ele>
        <time>2020-02-06T14:08:22Z</time>
      </trkpt>
      <trkpt lat="48.4352" lon="6.84034">
        <ele>375.93</ele>
        <time>2020-02-06T14:08:46Z</time>
      </trkpt>
      <trkpt lat="48.43493" lon="6.84016">
        <ele>375.73</ele>
        <time>2020-02-06T14:09:10Z</time>
      </trkpt>
      <trkpt lat="48.43466" lon="6.84001">
        <ele>375.15</ele>
        <time>2020-02-06T14:09:32Z</time>
      </trkpt>
      <trkpt lat="48.4344" lon="6.83986">
        <ele>374.36</ele>
        <time>2020-02-06T14:09:54Z</time>
      </trkpt>
      <trkpt lat="48.43402" lon="6.83985">
        <ele>373.65</ele>
        <time>2020-02-06T14:10:16Z</time>
      </trkpt>
      <trkpt lat="48.43377" lon="6.83978">
        <ele>373.81</ele>
        <time>2020-02-06T14:10:40Z</time>
      </trkpt>
      <trkpt lat="48.43351" lon="6.83952">
        <ele>373.2</ele>
        <time>2020-02-06T14:11:18Z</time>
      </trkpt>
      <trkpt lat="48.43343" lon="6.83949">
        <ele>372.74</ele>
        <time>2020-02-06T14:12:02Z</time>
      </trkpt>
      <trkpt lat="48.43333" lon="6.83943">
        <ele>372.97</ele>
        <time>2020-02-06T14:12:40Z</time>
      </trkpt>
      <trkpt lat="48.43332" lon="6.83943">
        <ele>372.47</ele>
        <time>2020-02-06T14:13:31Z</time>
      </trkpt>
      <trkpt lat="48.43327" lon="6.83936">
        <ele>372.5</ele>
        <time>2020-02-06T14:14:15Z</time>
      </trkpt>
      <trkpt lat="48.43329" lon="6.83933">
        <ele>372.55</ele>
        <time>2020-02-06T14:15:21Z</time>
      </trkpt>
      <trkpt lat="48.4333" lon="6.83947">
        <ele>372.53</ele>
        <time>2020-02-06T14:16:06Z</time>
      </trkpt>
      <trkpt lat="48.43327" lon="6.83961">
        <ele>372.13</ele>
        <time>2020-02-06T14:17:06Z</time>
      </trkpt>
      <trkpt lat="48.43332" lon="6.83956">
        <ele>371.86</ele>
        <time>2020-02-06T14:17:57Z</time>
      </trkpt>
      <trkpt lat="48.43328" lon="6.83953">
        <ele>371.12</ele>
        <time>2020-02-06T14:18:44Z</time>
      </trkpt>
      <trkpt lat="48.4333" lon="6.83955">
        <ele>371.1</ele>
        <time>2020-02-06T14:19:28Z</time>
      </trkpt>
      <trkpt lat="48.43335" lon="6.83961">
        <ele>371.33</ele>
        <time>2020-02-06T14:20:32Z</time>
      </trkpt>
      <trkpt lat="48.43344" lon="6.83945">
        <ele>370.71</ele>
        <time>2020-02-06T14:21:11Z</time>
      </trkpt>
      <trkpt lat="48.43338" lon="6.83943">
        <ele>370.53</ele>
        <time>2020-02-06T14:22:13Z</time>
      </trkpt>
      <trkpt lat="48.43325" lon="6.83944">
        <ele>370.84</ele>
        <time>2020-02-06T14:22:53Z</time>
      </trkpt>
      <trkpt lat="48.4333" lon="6.8396">
        <ele>370.47</ele>
        <time>2020-02-06T14:23:46Z</time>
      </trkpt>
      <trkpt lat="48.43323" lon="6.83957">
        <ele>370.19</ele>
        <time>2020-02-06T14:24:38Z</time>
      </trkpt>
      <trkpt lat="48.43319" lon="6.83966">
        <ele>370.25</ele>
        <time>2020-02-06T14:25:37Z</time>
      </trkpt>
      <trkpt lat="48.43323" lon="6.83961">
        <ele>370.1</ele>
        <time>2020-02-06T14:26:29Z</time>
      </trkpt>
      <trkpt lat="48.43328" lon="6.83949">
        <ele>370.52</ele>
        <time>2020-02-06T14:27:22Z</time>
      </trkpt>
      <trkpt lat="48.4333" lon="6.83952">
        <ele>370.5</ele>
        <time>2020-02-06T14:28:12Z</time>
      </trkpt>
      <trkpt lat="48.43333" lon="6.83947">
        <ele>370.46</ele>
        <time>2020-02-06T14:28:57Z</time>
      </trkpt>
      <trkpt lat="48.43333" lon="6.83963">
        <ele>369.94</ele>
        <time>2020-02-06T14:29:49Z</time>
      </trkpt>
      <trkpt lat="48.43325" lon="6.83959">
        <ele>370.46</ele>
        <time>2020-02-06T14:30:36Z</time>
      </trkpt>
      <trkpt lat="48.43325" lon="6.83959">
        <ele>370.49</ele>
        <time>2020-02-06T14:31:33Z</time>
      </trkpt>
      <trkpt lat="48.43327" lon="6.83977">
        <ele>370.56</ele>
        <time>2020-02-06T14:32:11Z</time>
      </trkpt>
      <trkpt lat="48.43308" lon="6.83978">
        <ele>370.51</ele>
        <time>2020-02-06T14:32:46Z</time>
      </trkpt>
      <trkpt lat="48.43324" lon="6.8397">
        <ele>370.43</ele>
        <time>2020-02-06T14:33:32Z</time>
      </trkpt>
      <trkpt lat="48.43326" lon="6.83958">
        <ele>370.57</ele>
        <time>2020-02-06T14:34:17Z</time>
      </trkpt>
      <trkpt lat="48.43308" lon="6.83965">
        <ele>370.32</ele>
        <time>2020-02-06T14:35:08Z</time>
      </trkpt>
      <trkpt lat="48.43317" lon="6.83972">
        <ele>370.77</ele>
        <time>2020-02-06T14:35:45Z</time>
      </trkpt>
      <trkpt lat="48.43334" lon="6.83949">
        <ele>371.04</ele>
        <time>2020-02-06T14:36:18Z</time>
      </trkpt>
      <trkpt lat="48.43335" lon="6.83949">
        <ele>371.19</ele>
        <time>2020-02-06T14:36:50Z</time>
      </trkpt>
      <trkpt lat="48.43332" lon="6.83937">
        <ele>371.21</ele>
        <time>2020-02-06T14:37:24Z</time>
      </trkpt>
      <trkpt lat="48.43348" lon="6.83942">
        <ele>371.08</ele>
        <time>2020-02-06T14:38:07Z</time>
      </trkpt>
      <trkpt lat="48.43362" lon="6.83922">
        <ele>369.34</ele>
        <time>2020-02-06T14:38:35Z</time>
      </trkpt>
      <trkpt lat="48.43353" lon="6.83887">
        <ele>367.41</ele>
        <time>2020-02-06T14:38:54Z</time>
      </trkpt>
      <trkpt lat="48.43345" lon="6.83856">
        <ele>365.38</ele>
        <time>2020-02-06T14:39:17Z</time>
      </trkpt>
      <trkpt lat="48.43329" lon="6.8383">
        <ele>363.79</ele>
        <time>2020-02-06T14:39:37Z</time>
      </trkpt>
      <trkpt lat="48.43314" lon="6.83804">
        <ele>362.7</ele>
        <time>2020-02-06T14:39:59Z</time>
      </trkpt>
      <trkpt lat="48.43298" lon="6.83779">
        <ele>361.55</ele>
        <time>2020-02-06T14:40:18Z</time>
      </trkpt>
      <trkpt lat="48.43282" lon="6.83753">
        <ele>360.26</ele>
        <time>2020-02-06T14:40:38Z</time>
      </trkpt>
      <trkpt lat="48.43266" lon="6.83729">
        <ele>358.39</ele>
        <time>2020-02-06T14:40:56Z</time>
      </trkpt>
      <trkpt lat="48.43252" lon="6.83707">
        <ele>357.8</ele>
        <time>2020-02-06T14:41:13Z</time>
      </trkpt>
      <trkpt lat="48.43236" lon="6.8369">
        <ele>356.18</ele>
        <time>2020-02-06T14:41:29Z</time>
      </trkpt>
      <trkpt lat="48.4322" lon="6.83672">
        <ele>355.37</ele>
        <time>2020-02-06T14:41:48Z</time>
      </trkpt>
      <trkpt lat="48.43208" lon="6.83648">
        <ele>354.28</ele>
        <time>2020-02-06T14:42:07Z</time>
      </trkpt>
      <trkpt lat="48.43194" lon="6.83627">
        <ele>353.34</ele>
        <time>2020-02-06T14:42:26Z</time>
      </trkpt>
      <trkpt lat="48.43177" lon="6.83604">
        <ele>352.87</ele>
        <time>2020-02-06T14:42:45Z</time>
      </trkpt>
      <trkpt lat="48.43157" lon="6.83584">
        <ele>352.73</ele>
        <time>2020-02-06T14:43:03Z</time>
      </trkpt>
      <trkpt lat="48.43142" lon="6.83561">
        <ele>352.7</ele>
        <time>2020-02-06T14:43:20Z</time>
      </trkpt>
      <trkpt lat="48.4313" lon="6.83536">
        <ele>351.99</ele>
        <time>2020-02-06T14:43:39Z</time>
      </trkpt>
      <trkpt lat="48.43121" lon="6.83509">
        <ele>351.35</ele>
        <time>2020-02-06T14:43:57Z</time>
      </trkpt>
      <trkpt lat="48.43114" lon="6.83483">
        <ele>351.36</ele>
        <time>2020-02-06T14:44:13Z</time>
      </trkpt>
      <trkpt lat="48.43106" lon="6.83448">
        <ele>352.09</ele>
        <time>2020-02-06T14:44:34Z</time>
      </trkpt>
      <trkpt lat="48.43103" lon="6.83412">
        <ele>353.47</ele>
        <time>2020-02-06T14:44:57Z</time>
      </trkpt>
      <trkpt lat="48.431" lon="6.83379">
        <ele>355.47</ele>
        <time>2020-02-06T14:45:21Z</time>
      </trkpt>
      <trkpt lat="48.4311" lon="6.83351">
        <ele>356.83</ele>
        <time>2020-02-06T14:45:43Z</time>
      </trkpt>
      <trkpt lat="48.43122" lon="6.83323">
        <ele>356.81</ele>
        <time>2020-02-06T14:46:05Z</time>
      </trkpt>
      <trkpt lat="48.43132" lon="6.833">
        <ele>356.49</ele>
        <time>2020-02-06T14:46:28Z</time>
      </trkpt>
      <trkpt lat="48.43156" lon="6.83283">
        <ele>354.59</ele>
        <time>2020-02-06T14:46:51Z</time>
      </trkpt>
      <trkpt lat="48.43179" lon="6.83279">
        <ele>352.45</ele>
        <time>2020-02-06T14:47:10Z</time>
      </trkpt>
      <trkpt lat="48.43196" lon="6.83293">
        <ele>349.57</ele>
        <time>2020-02-06T14:47:31Z</time>
      </trkpt>
      <trkpt lat="48.43212" lon="6.83317">
        <ele>345.64</ele>
        <time>2020-02-06T14:47:51Z</time>
      </trkpt>
      <trkpt lat="48.43227" lon="6.83346">
        <ele>342.24</ele>
        <time>2020-02-06T14:48:11Z</time>
      </trkpt>
      <trkpt lat="48.43244" lon="6.83372">
        <ele>340.57</ele>
        <time>2020-02-06T14:48:28Z</time>
      </trkpt>
      <trkpt lat="48.43259" lon="6.83392">
        <ele>338.45</ele>
        <time>2020-02-06T14:48:47Z</time>
      </trkpt>
      <trkpt lat="48.43271" lon="6.83418">
        <ele>335.98</ele>
        <time>2020-02-06T14:49:05Z</time>
      </trkpt>
      <trkpt lat="48.43285" lon="6.83443">
        <ele>334.32</ele>
        <time>2020-02-06T14:49:24Z</time>
      </trkpt>
      <trkpt lat="48.43304" lon="6.8346">
        <ele>331.76</ele>
        <time>2020-02-06T14:49:42Z</time>
      </trkpt>
      <trkpt lat="48.43324" lon="6.83477">
        <ele>329.37</ele>
        <time>2020-02-06T14:50:00Z</time>
      </trkpt>
      <trkpt lat="48.4334" lon="6.83491">
        <ele>326.88</ele>
        <time>2020-02-06T14:50:17Z</time>
      </trkpt>
      <trkpt lat="48.43351" lon="6.83515">
        <ele>324.22</ele>
        <time>2020-02-06T14:50:36Z</time>
      </trkpt>
      <trkpt lat="48.43362" lon="6.83536">
        <ele>323.55</ele>
        <time>2020-02-06T14:50:56Z</time>
      </trkpt>
      <trkpt lat="48.43382" lon="6.83557">
        <ele>322.31</ele>
        <time>2020-02-06T14:51:17Z</time>
      </trkpt>
      <trkpt lat="48.43413" lon="6.83568">
        <ele>321.18</ele>
        <time>2020-02-06T14:51:46Z</time>
      </trkpt>
      <trkpt lat="48.43445" lon="6.83574">
        <ele>319.72</ele>
        <time>2020-02-06T14:52:17Z</time>
      </trkpt>
      <trkpt lat="48.43471" lon="6.83567">
        <ele>319.51</ele>
        <time>2020-02-06T14:52:41Z</time>
      </trkpt>
      <trkpt lat="48.43495" lon="6.83561">
        <ele>319.04</ele>
        <time>2020-02-06T14:53:07Z</time>
      </trkpt>
      <trkpt lat="48.43515" lon="6.83556">
        <ele>318.29</ele>
        <time>2020-02-06T14:53:31Z</time>
      </trkpt>
      <trkpt lat="48.4354" lon="6.83548">
        <ele>317.46</ele>
        <time>2020-02-06T14:53:52Z</time>
      </trkpt>
      <trkpt lat="48.43565" lon="6.83531">
        <ele>316.39</ele>
        <time>2020-02-06T14:54:11Z</time>
      </trkpt>
      <trkpt lat="48.43594" lon="6.83533">
        <ele>315.75</ele>
        <time>2020-02-06T14:54:32Z</time>
      </trkpt>
      <trkpt lat="48.43617" lon="6.83532">
        <ele>315.69</ele>
        <time>2020-02-06T14:54:52Z</time>
      </trkpt>
      <trkpt lat="48.4364" lon="6.83532">
        <ele>314.86</ele>
        <time>2020-02-06T14:55:13Z</time>
      </trkpt>
      <trkpt lat="48.43665" lon="6.83535">
        <ele>313.74</ele>
        <time>2020-02-06T14:55:33Z</time>
      </trkpt>
      <trkpt lat="48.43688" lon="6.83531">
        <ele>312.81</ele>
        <time>2020-02-06T14:55:53Z</time>
      </trkpt>
      <trkpt lat="48.43708" lon="6.83522">
        <ele>312.14</ele>
        <time>2020-02-06T14:56:22Z</time>
      </trkpt>
      <trkpt lat="48.43734" lon="6.83501">
        <ele>311.16</ele>
        <time>2020-02-06T14:56:43Z</time>
      </trkpt>
      <trkpt lat="48.43751" lon="6.83473">
        <ele>310.56</ele>
        <time>2020-02-06T14:57:03Z</time>
      </trkpt>
      <trkpt lat="48.4377" lon="6.83449">
        <ele>310.82</ele>
        <time>2020-02-06T14:57:23Z</time>
      </trkpt>
      <trkpt lat="48.43783" lon="6.83461">
        <ele>310.32</ele>
        <time>2020-02-06T14:57:41Z</time>
      </trkpt>
      <trkpt lat="48.4378" lon="6.83489">
        <ele>310.96</ele>
        <time>2020-02-06T14:57:58Z</time>
      </trkpt>
      <trkpt lat="48.43775" lon="6.83511">
        <ele>311.55</ele>
        <time>2020-02-06T14:58:19Z</time>
      </trkpt>
      <trkpt lat="48.43785" lon="6.83508">
        <ele>312.82</ele>
        <time>2020-02-06T14:58:45Z</time>
      </trkpt>
      <trkpt lat="48.43795" lon="6.83492">
        <ele>313.62</ele>
        <time>2020-02-06T14:59:15Z</time>
      </trkpt>
      <trkpt lat="48.43794" lon="6.83483">
        <ele>312.63</ele>
        <time>2020-02-06T14:59:47Z</time>
      </trkpt>
      <trkpt lat="48.43786" lon="6.83468">
        <ele>313.26</ele>
        <time>2020-02-06T15:00:21Z</time>
      </trkpt>
      <trkpt lat="48.4378" lon="6.83446">
        <ele>313.87</ele>
        <time>2020-02-06T15:01:15Z</time>
      </trkpt>
      <trkpt lat="48.43788" lon="6.83462">
        <ele>314.08</ele>
        <time>2020-02-06T15:02:00Z</time>
      </trkpt>
      <trkpt lat="48.43786" lon="6.83455">
        <ele>313.87</ele>
        <time>2020-02-06T15:02:37Z</time>
      </trkpt>
      <trkpt lat="48.43779" lon="6.83427">
        <ele>313.12</ele>
        <time>2020-02-06T15:02:56Z</time>
      </trkpt>
      <trkpt lat="48.43787" lon="6.83398">
        <ele>313.19</ele>
        <time>2020-02-06T15:03:13Z</time>
      </trkpt>
      <trkpt lat="48.43781" lon="6.83366">
        <ele>311.79</ele>
        <time>2020-02-06T15:03:32Z</time>
      </trkpt>
      <trkpt lat="48.43773" lon="6.83337">
        <ele>312.77</ele>
        <time>2020-02-06T15:03:50Z</time>
      </trkpt>
      <trkpt lat="48.43758" lon="6.83312">
        <ele>311.58</ele>
        <time>2020-02-06T15:04:12Z</time>
      </trkpt>
      <trkpt lat="48.43741" lon="6.83286">
        <ele>311.94</ele>
        <time>2020-02-06T15:04:31Z</time>
      </trkpt>
      <trkpt lat="48.43726" lon="6.8326">
        <ele>310.42</ele>
        <time>2020-02-06T15:04:49Z</time>
      </trkpt>
      <trkpt lat="48.43718" lon="6.83236">
        <ele>310.53</ele>
        <time>2020-02-06T15:05:05Z</time>
      </trkpt>
      <trkpt lat="48.43707" lon="6.83213">
        <ele>309.61</ele>
        <time>2020-02-06T15:05:21Z</time>
      </trkpt>
      <trkpt lat="48.43696" lon="6.83191">
        <ele>309.86</ele>
        <time>2020-02-06T15:05:37Z</time>
      </trkpt>
      <trkpt lat="48.43693" lon="6.83163">
        <ele>308.52</ele>
        <time>2020-02-06T15:05:57Z</time>
      </trkpt>
      <trkpt lat="48.4369" lon="6.83143">
        <ele>309</ele>
        <time>2020-02-06T15:06:44Z</time>
      </trkpt>
      <trkpt lat="48.43677" lon="6.83125">
        <ele>308.36</ele>
        <time>2020-02-06T15:07:16Z</time>
      </trkpt>
      <trkpt lat="48.43663" lon="6.83103">
        <ele>308.09</ele>
        <time>2020-02-06T15:07:32Z</time>
      </trkpt>
      <trkpt lat="48.43649" lon="6.8308">
        <ele>308.39</ele>
        <time>2020-02-06T15:07:52Z</time>
      </trkpt>
      <trkpt lat="48.43634" lon="6.83058">
        <ele>308.71</ele>
        <time>2020-02-06T15:08:07Z</time>
      </trkpt>
      <trkpt lat="48.43633" lon="6.8303">
        <ele>310.93</ele>
        <time>2020-02-06T15:08:23Z</time>
      </trkpt>
      <trkpt lat="48.43629" lon="6.83003">
        <ele>313.42</ele>
        <time>2020-02-06T15:08:41Z</time>
      </trkpt>
      <trkpt lat="48.43618" lon="6.82975">
        <ele>313.86</ele>
        <time>2020-02-06T15:08:58Z</time>
      </trkpt>
      <trkpt lat="48.43607" lon="6.8295">
        <ele>313.41</ele>
        <time>2020-02-06T15:09:16Z</time>
      </trkpt>
      <trkpt lat="48.43591" lon="6.82937">
        <ele>312.43</ele>
        <time>2020-02-06T15:09:45Z</time>
      </trkpt>
      <trkpt lat="48.43571" lon="6.82921">
        <ele>308.86</ele>
        <time>2020-02-06T15:10:12Z</time>
      </trkpt>
      <trkpt lat="48.43554" lon="6.82894">
        <ele>308.45</ele>
        <time>2020-02-06T15:10:30Z</time>
      </trkpt>
      <trkpt lat="48.43544" lon="6.82869">
        <ele>308.37</ele>
        <time>2020-02-06T15:10:47Z</time>
      </trkpt>
      <trkpt lat="48.43532" lon="6.82846">
        <ele>307.95</ele>
        <time>2020-02-06T15:11:03Z</time>
      </trkpt>
      <trkpt lat="48.43523" lon="6.82822">
        <ele>306.04</ele>
        <time>2020-02-06T15:11:22Z</time>
      </trkpt>
      <trkpt lat="48.43508" lon="6.82792">
        <ele>305.47</ele>
        <time>2020-02-06T15:11:46Z</time>
      </trkpt>
      <trkpt lat="48.43498" lon="6.82761">
        <ele>306.01</ele>
        <time>2020-02-06T15:12:17Z</time>
      </trkpt>
      <trkpt lat="48.4348" lon="6.82732">
        <ele>304.94</ele>
        <time>2020-02-06T15:12:38Z</time>
      </trkpt>
      <trkpt lat="48.43465" lon="6.82701">
        <ele>305.13</ele>
        <time>2020-02-06T15:13:02Z</time>
      </trkpt>
      <trkpt lat="48.43461" lon="6.82664">
        <ele>304.9</ele>
        <time>2020-02-06T15:13:21Z</time>
      </trkpt>
      <trkpt lat="48.43472" lon="6.82635">
        <ele>305.37</ele>
        <time>2020-02-06T15:13:40Z</time>
      </trkpt>
      <trkpt lat="48.43491" lon="6.82621">
        <ele>306</ele>
        <time>2020-02-06T15:13:58Z</time>
      </trkpt>
      <trkpt lat="48.43492" lon="6.82594">
        <ele>306.1</ele>
        <time>2020-02-06T15:14:22Z</time>
      </trkpt>
      <trkpt lat="48.43494" lon="6.82571">
        <ele>306.78</ele>
        <time>2020-02-06T15:14:52Z</time>
      </trkpt>
      <trkpt lat="48.43464" lon="6.82575">
        <ele>306.31</ele>
        <time>2020-02-06T15:15:14Z</time>
      </trkpt>
      <trkpt lat="48.43442" lon="6.82592">
        <ele>305.06</ele>
        <time>2020-02-06T15:15:35Z</time>
      </trkpt>
      <trkpt lat="48.43423" lon="6.82608">
        <ele>302.91</ele>
        <time>2020-02-06T15:15:55Z</time>
      </trkpt>
      <trkpt lat="48.43402" lon="6.82615">
        <ele>301.53</ele>
        <time>2020-02-06T15:16:16Z</time>
      </trkpt>
      <trkpt lat="48.43387" lon="6.82589">
        <ele>301.27</ele>
        <time>2020-02-06T15:16:35Z</time>
      </trkpt>
      <trkpt lat="48.43374" lon="6.82559">
        <ele>301.98</ele>
        <time>2020-02-06T15:17:01Z</time>
      </trkpt>
      <trkpt lat="48.43364" lon="6.82534">
        <ele>301.92</ele>
        <time>2020-02-06T15:17:42Z</time>
      </trkpt>
      <trkpt lat="48.43352" lon="6.82509">
        <ele>302.12</ele>
        <time>2020-02-06T15:18:00Z</time>
      </trkpt>
      <trkpt lat="48.43349" lon="6.82485">
        <ele>302.91</ele>
        <time>2020-02-06T15:18:20Z</time>
      </trkpt>
      <trkpt lat="48.43364" lon="6.82459">
        <ele>306</ele>
        <time>2020-02-06T15:18:42Z</time>
      </trkpt>
      <trkpt lat="48.43359" lon="6.82435">
        <ele>305.09</ele>
        <time>2020-02-06T15:19:06Z</time>
      </trkpt>
      <trkpt lat="48.43344" lon="6.82407">
        <ele>302.09</ele>
        <time>2020-02-06T15:19:35Z</time>
      </trkpt>
      <trkpt lat="48.43332" lon="6.82383">
        <ele>302</ele>
        <time>2020-02-06T15:20:07Z</time>
      </trkpt>
      <trkpt lat="48.43321" lon="6.82379">
        <ele>303.45</ele>
        <time>2020-02-06T15:20:44Z</time>
      </trkpt>
      <trkpt lat="48.43305" lon="6.82357">
        <ele>303.49</ele>
        <time>2020-02-06T15:21:05Z</time>
      </trkpt>
      <trkpt lat="48.43286" lon="6.82334">
        <ele>302.08</ele>
        <time>2020-02-06T15:21:33Z</time>
      </trkpt>
      <trkpt lat="48.43261" lon="6.82311">
        <ele>300.47</ele>
        <time>2020-02-06T15:22:01Z</time>
      </trkpt>
      <trkpt lat="48.43244" lon="6.8229">
        <ele>299.77</ele>
        <time>2020-02-06T15:22:29Z</time>
      </trkpt>
      <trkpt lat="48.43229" lon="6.82276">
        <ele>298.18</ele>
        <time>2020-02-06T15:22:59Z</time>
      </trkpt>
      <trkpt lat="48.43212" lon="6.82299">
        <ele>295.17</ele>
        <time>2020-02-06T15:23:24Z</time>
      </trkpt>
      <trkpt lat="48.43203" lon="6.82337">
        <ele>294.76</ele>
        <time>2020-02-06T15:23:52Z</time>
      </trkpt>
      <trkpt lat="48.43195" lon="6.82362">
        <ele>297.14</ele>
        <time>2020-02-06T15:24:30Z</time>
      </trkpt>
      <trkpt lat="48.43181" lon="6.82354">
        <ele>298.06</ele>
        <time>2020-02-06T15:25:02Z</time>
      </trkpt>
      <trkpt lat="48.43166" lon="6.82334">
        <ele>297.24</ele>
        <time>2020-02-06T15:25:23Z</time>
      </trkpt>
      <trkpt lat="48.43155" lon="6.82318">
        <ele>297.86</ele>
        <time>2020-02-06T15:26:24Z</time>
      </trkpt>
      <trkpt lat="48.43144" lon="6.82298">
        <ele>297.95</ele>
        <time>2020-02-06T15:26:43Z</time>
      </trkpt>
      <trkpt lat="48.43131" lon="6.82277">
        <ele>298.37</ele>
        <time>2020-02-06T15:27:04Z</time>
      </trkpt>
      <trkpt lat="48.43104" lon="6.82266">
        <ele>298.07</ele>
        <time>2020-02-06T15:27:28Z</time>
      </trkpt>
      <trkpt lat="48.43082" lon="6.82268">
        <ele>299.22</ele>
        <time>2020-02-06T15:27:46Z</time>
      </trkpt>
      <trkpt lat="48.43058" lon="6.82281">
        <ele>298.85</ele>
        <time>2020-02-06T15:28:07Z</time>
      </trkpt>
      <trkpt lat="48.43038" lon="6.82297">
        <ele>298.68</ele>
        <time>2020-02-06T15:28:24Z</time>
      </trkpt>
      <trkpt lat="48.43023" lon="6.82319">
        <ele>299.89</ele>
        <time>2020-02-06T15:28:40Z</time>
      </trkpt>
      <trkpt lat="48.43005" lon="6.82335">
        <ele>300.45</ele>
        <time>2020-02-06T15:28:56Z</time>
      </trkpt>
      <trkpt lat="48.42988" lon="6.82351">
        <ele>300.48</ele>
        <time>2020-02-06T15:29:12Z</time>
      </trkpt>
      <trkpt lat="48.4297" lon="6.82358">
        <ele>301.25</ele>
        <time>2020-02-06T15:29:33Z</time>
      </trkpt>
      <trkpt lat="48.42957" lon="6.82367">
        <ele>301.96</ele>
        <time>2020-02-06T15:30:00Z</time>
      </trkpt>
      <trkpt lat="48.42936" lon="6.82374">
        <ele>302.82</ele>
        <time>2020-02-06T15:30:27Z</time>
      </trkpt>
      <trkpt lat="48.42912" lon="6.82365">
        <ele>304.52</ele>
        <time>2020-02-06T15:30:48Z</time>
      </trkpt>
      <trkpt lat="48.42896" lon="6.82337">
        <ele>306.22</ele>
        <time>2020-02-06T15:31:07Z</time>
      </trkpt>
      <trkpt lat="48.42894" lon="6.82312">
        <ele>308.15</ele>
        <time>2020-02-06T15:31:29Z</time>
      </trkpt>
      <trkpt lat="48.42897" lon="6.82277">
        <ele>309.35</ele>
        <time>2020-02-06T15:31:49Z</time>
      </trkpt>
      <trkpt lat="48.42898" lon="6.82243">
        <ele>309.5</ele>
        <time>2020-02-06T15:32:25Z</time>
      </trkpt>
      <trkpt lat="48.42903" lon="6.82216">
        <ele>310.92</ele>
        <time>2020-02-06T15:32:52Z</time>
      </trkpt>
      <trkpt lat="48.42908" lon="6.82184">
        <ele>309.23</ele>
        <time>2020-02-06T15:33:10Z</time>
      </trkpt>
      <trkpt lat="48.42901" lon="6.82155">
        <ele>308.5</ele>
        <time>2020-02-06T15:33:38Z</time>
      </trkpt>
      <trkpt lat="48.42893" lon="6.82128">
        <ele>306.83</ele>
        <time>2020-02-06T15:34:05Z</time>
      </trkpt>
      <trkpt lat="48.42887" lon="6.82109">
        <ele>305.07</ele>
        <time>2020-02-06T15:35:20Z</time>
      </trkpt>
      <trkpt lat="48.4288" lon="6.82084">
        <ele>303.67</ele>
        <time>2020-02-06T15:35:44Z</time>
      </trkpt>
      <trkpt lat="48.42867" lon="6.82061">
        <ele>301.98</ele>
        <time>2020-02-06T15:36:03Z</time>
      </trkpt>
      <trkpt lat="48.42855" lon="6.82039">
        <ele>300.84</ele>
        <time>2020-02-06T15:36:20Z</time>
      </trkpt>
      <trkpt lat="48.42842" lon="6.82018">
        <ele>300.06</ele>
        <time>2020-02-06T15:36:35Z</time>
      </trkpt>
      <trkpt lat="48.42833" lon="6.81993">
        <ele>298.94</ele>
        <time>2020-02-06T15:36:52Z</time>
      </trkpt>
      <trkpt lat="48.42836" lon="6.81967">
        <ele>298.3</ele>
        <time>2020-02-06T15:37:11Z</time>
      </trkpt>
      <trkpt lat="48.42842" lon="6.81944">
        <ele>297.57</ele>
        <time>2020-02-06T15:37:28Z</time>
      </trkpt>
      <trkpt lat="48.42854" lon="6.81921">
        <ele>296.62</ele>
        <time>2020-02-06T15:37:50Z</time>
      </trkpt>
      <trkpt lat="48.42866" lon="6.81897">
        <ele>294.61</ele>
        <time>2020-02-06T15:38:08Z</time>
      </trkpt>
      <trkpt lat="48.42876" lon="6.81874">
        <ele>293.96</ele>
        <time>2020-02-06T15:38:39Z</time>
      </trkpt>
      <trkpt lat="48.42859" lon="6.81862">
        <ele>293.82</ele>
        <time>2020-02-06T15:39:16Z</time>
      </trkpt>
      <trkpt lat="48.42845" lon="6.8184">
        <ele>294.52</ele>
        <time>2020-02-06T15:39:38Z</time>
      </trkpt>
      <trkpt lat="48.42834" lon="6.81817">
        <ele>295.64</ele>
        <time>2020-02-06T15:40:01Z</time>
      </trkpt>
      <trkpt lat="48.42826" lon="6.81791">
        <ele>297.16</ele>
        <time>2020-02-06T15:40:31Z</time>
      </trkpt>
      <trkpt lat="48.42818" lon="6.81767">
        <ele>297.56</ele>
        <time>2020-02-06T15:40:54Z</time>
      </trkpt>
      <trkpt lat="48.42805" lon="6.81752">
        <ele>298.28</ele>
        <time>2020-02-06T15:41:35Z</time>
      </trkpt>
      <trkpt lat="48.42789" lon="6.81736">
        <ele>298.23</ele>
        <time>2020-02-06T15:41:53Z</time>
      </trkpt>
      <trkpt lat="48.42781" lon="6.81712">
        <ele>298.11</ele>
        <time>2020-02-06T15:42:09Z</time>
      </trkpt>
      <trkpt lat="48.42782" lon="6.81685">
        <ele>297.45</ele>
        <time>2020-02-06T15:42:25Z</time>
      </trkpt>
      <trkpt lat="48.42787" lon="6.81659">
        <ele>298.28</ele>
        <time>2020-02-06T15:42:43Z</time>
      </trkpt>
      <trkpt lat="48.42792" lon="6.81626">
        <ele>298.9</ele>
        <time>2020-02-06T15:43:03Z</time>
      </trkpt>
      <trkpt lat="48.42784" lon="6.81602">
        <ele>299.12</ele>
        <time>2020-02-06T15:43:35Z</time>
      </trkpt>
      <trkpt lat="48.4278" lon="6.81564">
        <ele>298.46</ele>
        <time>2020-02-06T15:43:57Z</time>
      </trkpt>
      <trkpt lat="48.42769" lon="6.81533">
        <ele>297.76</ele>
        <time>2020-02-06T15:44:15Z</time>
      </trkpt>
      <trkpt lat="48.42763" lon="6.81505">
        <ele>296.35</ele>
        <time>2020-02-06T15:44:38Z</time>
      </trkpt>
      <trkpt lat="48.42747" lon="6.81459">
        <ele>295.72</ele>
        <time>2020-02-06T15:45:04Z</time>
      </trkpt>
      <trkpt lat="48.42734" lon="6.81419">
        <ele>295.58</ele>
        <time>2020-02-06T15:45:23Z</time>
      </trkpt>
      <trkpt lat="48.42727" lon="6.81389">
        <ele>295.93</ele>
        <time>2020-02-06T15:45:40Z</time>
      </trkpt>
      <trkpt lat="48.42724" lon="6.81356">
        <ele>297.19</ele>
        <time>2020-02-06T15:45:59Z</time>
      </trkpt>
      <trkpt lat="48.42721" lon="6.81318">
        <ele>298.49</ele>
        <time>2020-02-06T15:46:23Z</time>
      </trkpt>
      <trkpt lat="48.42708" lon="6.81286">
        <ele>298.35</ele>
        <time>2020-02-06T15:46:50Z</time>
      </trkpt>
      <trkpt lat="48.42694" lon="6.81258">
        <ele>298.01</ele>
        <time>2020-02-06T15:47:10Z</time>
      </trkpt>
      <trkpt lat="48.42686" lon="6.81228">
        <ele>297.92</ele>
        <time>2020-02-06T15:47:28Z</time>
      </trkpt>
      <trkpt lat="48.42673" lon="6.81198">
        <ele>297.14</ele>
        <time>2020-02-06T15:47:45Z</time>
      </trkpt>
      <trkpt lat="48.42667" lon="6.81172">
        <ele>297.1</ele>
        <time>2020-02-06T15:48:08Z</time>
      </trkpt>
      <trkpt lat="48.42656" lon="6.81148">
        <ele>296.61</ele>
        <time>2020-02-06T15:48:26Z</time>
      </trkpt>
      <trkpt lat="48.42645" lon="6.8112">
        <ele>295.78</ele>
        <time>2020-02-06T15:48:43Z</time>
      </trkpt>
      <trkpt lat="48.42629" lon="6.81089">
        <ele>295.06</ele>
        <time>2020-02-06T15:49:01Z</time>
      </trkpt>
      <trkpt lat="48.42619" lon="6.81063">
        <ele>294.18</ele>
        <time>2020-02-06T15:49:23Z</time>
      </trkpt>
      <trkpt lat="48.42607" lon="6.81036">
        <ele>292.08</ele>
        <time>2020-02-06T15:49:45Z</time>
      </trkpt>
      <trkpt lat="48.42593" lon="6.81007">
        <ele>290.81</ele>
        <time>2020-02-06T15:50:05Z</time>
      </trkpt>
      <trkpt lat="48.42578" lon="6.80979">
        <ele>288.82</ele>
        <time>2020-02-06T15:50:24Z</time>
      </trkpt>
      <trkpt lat="48.42565" lon="6.80949">
        <ele>287.85</ele>
        <time>2020-02-06T15:50:43Z</time>
      </trkpt>
      <trkpt lat="48.42557" lon="6.80921">
        <ele>287.29</ele>
        <time>2020-02-06T15:50:59Z</time>
      </trkpt>
    </trkseg>
  </trk>
</gpx>